Time;durP1;ratioP1;P1;durP2;ratioP2;P2;SDS_P1;SDS_P2;PMS_P1;PMS_P2;Temp;Humidity;BMP_temperature;BMP_pressure;BME280_temperature;BME280_humidity;BME280_pressure;Samples;Min_cycle;Max_cycle;Signal;HPM_P1;HPM_P2
2023/12/03 00:01:13;;;;;;;;;;;;;;;;;;2199992;67;1725;-19
2023/12/03 00:03:43;;;;;;;;;;;;;;;;;;2197074;59;2496;-19
2023/12/03 00:06:14;;;;;;;;;;;;;;;;;;2195185;59;1784;-19
2023/12/03 00:08:44;;;;;;;;;;;;;;;;;;2198484;59;1705;-19
2023/12/03 00:11:15;;;;;;;;;;;;;;;;;;2198845;59;1963;-17
2023/12/03 00:13:48;;;;;;;;;;;;;;;;;;2198298;59;1728;-17
2023/12/03 00:16:19;;;;;;;;;;;;;;;;;;2196801;59;1812;-17
2023/12/03 00:18:49;;;;;;;;;;;;;;;;;;2199400;59;1757;-19
2023/12/03 00:21:20;;;;;;;;;;;;;;;;;;2199197;59;2461;-19
2023/12/03 00:23:50;;;;;;;;;;;;;;;;;;2201007;66;1954;-19
2023/12/03 00:26:20;;;;;;;;;;;;;;;;;;2196220;59;2190;-19
2023/12/03 00:28:51;;;;;;;;;;;;;;;;;;2199870;59;2344;-19
2023/12/03 00:31:21;;;;;;;;;;;;;;;;;;2199269;67;1804;-19
2023/12/03 00:33:51;;;;;;;;;;;;;;;;;;2197435;58;2293;-19
2023/12/03 00:36:21;;;;;;;;;;;;;;;;;;2195703;66;1848;-19
2023/12/03 00:38:52;;;;;;;;;;;;;;;;;;2198562;59;2361;-19
2023/12/03 00:41:22;;;;;;;;;;;;;;;;;;2198813;59;2382;-19
2023/12/03 00:43:53;;;;;;;;;;;;;;;;;;2197221;59;1933;-19
2023/12/03 00:46:23;;;;;;;;;;;;;;;;;;2195320;66;2244;-19
2023/12/03 00:48:53;;;;;;;;;;;;;;;;;;2196203;66;1801;-19
2023/12/03 00:51:24;;;;;;;;;;;;;;;;;;2199054;60;2296;-19
2023/12/03 00:53:54;;;;;;;;;;;;;;;;;;2198853;67;1774;-19
2023/12/03 00:56:24;;;;;;;;;;;;;;;;;;2195812;59;1971;-19
2023/12/03 00:58:54;;;;;;;;;;;;;;;;;;2195642;66;1694;-19
2023/12/03 01:01:25;;;;;;;;;;;;;;;;;;2199523;67;1832;-19
2023/12/03 01:03:55;;;;;;;;;;;;;;;;;;2199288;59;2534;-19
2023/12/03 01:06:25;;;;;;;;;;;;;;;;;;2198537;59;2791;-19
2023/12/03 01:08:56;;;;;;;;;;;;;;;;;;2199623;67;2655;-19
2023/12/03 01:11:26;;;;;;;;;;;;;;;;;;2200043;66;1927;-19
2023/12/03 01:13:56;;;;;;;;;;;;;;;;;;2200032;66;1809;-19
2023/12/03 01:16:26;;;;;;;;;;;;;;;;;;2199981;58;1954;-19
2023/12/03 01:18:56;;;;;;;;;;;;;;;;;;2196416;67;2722;-19
2023/12/03 01:21:27;;;;;;;;;;;;;;;;;;2199244;67;2661;-19
2023/12/03 01:23:57;;;;;;;;;;;;;;;;;;2197368;60;2519;-19
2023/12/03 01:26:27;;;;;;;;;;;;;;;;;;2200136;67;2212;-19
2023/12/03 01:28:58;;;;;;;;;;;;;;;;;;2197209;59;2269;-19
2023/12/03 01:31:28;;;;;;;;;;;;;;;;;;2196805;59;1884;-19
2023/12/03 01:33:58;;;;;;;;;;;;;;;;;;2199502;59;2310;-19
2023/12/03 01:36:29;;;;;;;;;;;;;;;;;;2199738;66;2183;-19
2023/12/03 01:38:59;;;;;;;;;;;;;;;;;;2200321;67;1827;-19
2023/12/03 01:41:29;;;;;;;;;;;;;;;;;;2200184;59;2401;-19
2023/12/03 01:44:00;;;;;;;;;;;;;;;;;;2200209;59;2245;-19
2023/12/03 01:46:30;;;;;;;;;;;;;;;;;;2199851;67;1760;-19
2023/12/03 01:49:00;;;;;;;;;;;;;;;;;;2200407;66;1790;-19
2023/12/03 01:51:31;;;;;;;;;;;;;;;;;;2199915;67;1756;-19
2023/12/03 01:54:01;;;;;;;;;;;;;;;;;;2200445;60;2007;-19
2023/12/03 01:56:32;;;;;;;;;;;;;;;;;;2194562;67;2782;-19
2023/12/03 01:59:02;;;;;;;;;;;;;;;;;;2199185;66;2247;-19
2023/12/03 02:01:32;;;;;;;;;;;;;;;;;;2196501;66;2275;-19
2023/12/03 02:04:02;;;;;;;;;;;;;;;;;;2196076;59;2519;-19
2023/12/03 02:06:33;;;;;;;;;;;;;;;;;;2198933;59;1907;-19
2023/12/03 02:09:03;;;;;;;;;;;;;;;;;;2197188;66;2025;-19
2023/12/03 02:11:34;;;;;;;;;;;;;;;;;;2197977;66;2475;-19
2023/12/03 02:14:04;;;;;;;;;;;;;;;;;;2199755;59;1991;-19
2023/12/03 02:16:35;;;;;;;;;;;;;;;;;;2199958;67;1913;-19
2023/12/03 02:19:05;;;;;;;;;;;;;;;;;;2200526;59;1793;-19
2023/12/03 02:21:35;;;;;;;;;;;;;;;;;;2199658;66;2791;-23
2023/12/03 02:24:06;;;;;;;;;;;;;;;;;;2198017;66;2060;-19
2023/12/03 02:26:36;;;;;;;;;;;;;;;;;;2197842;66;2327;-19
2023/12/03 02:29:06;;;;;;;;;;;;;;;;;;2200612;59;2458;-19
2023/12/03 02:31:36;;;;;;;;;;;;;;;;;;2197161;59;2161;-19
2023/12/03 02:34:09;;;;;;;;;;;;;;;;;;2200438;66;2494;-19
2023/12/03 02:36:39;;;;;;;;;;;;;;;;;;2200063;67;1792;-19
2023/12/03 02:39:09;;;;;;;;;;;;;;;;;;2200201;67;2577;-19
2023/12/03 02:41:40;;;;;;;;;;;;;;;;;;2199776;59;1850;-19
2023/12/03 02:44:10;;;;;;;;;;;;;;;;;;2200462;66;1912;-19
2023/12/03 02:46:40;;;;;;;;;;;;;;;;;;2200161;66;2478;-19
2023/12/03 02:49:11;;;;;;;;;;;;;;;;;;2200571;58;2018;-19
2023/12/03 02:51:41;;;;;;;;;;;;;;;;;;2197641;59;2603;-19
2023/12/03 02:54:11;;;;;;;;;;;;;;;;;;2200273;59;2036;-19
2023/12/03 02:56:42;;;;;;;;;;;;;;;;;;2198769;66;1863;-19
2023/12/03 02:59:12;;;;;;;;;;;;;;;;;;2200721;67;1876;-19
2023/12/03 03:01:43;;;;;;;;;;;;;;;;;;2199907;66;1903;-19
2023/12/03 03:04:13;;;;;;;;;;;;;;;;;;2199924;66;3224;-19
2023/12/03 03:06:43;;;;;;;;;;;;;;;;;;2200023;59;2435;-19
2023/12/03 03:09:14;;;;;;;;;;;;;;;;;;2200674;59;2282;-19
2023/12/03 03:11:44;;;;;;;;;;;;;;;;;;2194911;67;2852;-19
2023/12/03 03:14:14;;;;;;;;;;;;;;;;;;2201105;59;2901;-19
2023/12/03 03:16:44;;;;;;;;;;;;;;;;;;2196368;59;1938;-19
2023/12/03 03:19:15;;;;;;;;;;;;;;;;;;2199950;67;2120;-19
2023/12/03 03:21:45;;;;;;;;;;;;;;;;;;2197276;59;1805;-19
2023/12/03 03:24:15;;;;;;;;;;;;;;;;;;2200722;67;1940;-19
2023/12/03 03:26:46;;;;;;;;;;;;;;;;;;2199887;67;2379;-19
2023/12/03 03:29:16;;;;;;;;;;;;;;;;;;2201221;59;2124;-19
2023/12/03 03:31:46;;;;;;;;;;;;;;;;;;2200769;59;1734;-19
2023/12/03 03:34:16;;;;;;;;;;;;;;;;;;2199748;66;2544;-19
2023/12/03 03:36:46;;;;;;;;;;;;;;;;;;2199555;66;1714;-19
2023/12/03 03:39:17;;;;;;;;;;;;;;;;;;2197015;66;1924;-19
2023/12/03 03:41:47;;;;;;;;;;;;;;;;;;2199633;59;1692;-19
2023/12/03 03:44:17;;;;;;;;;;;;;;;;;;2201118;67;1965;-19
2023/12/03 03:46:48;;;;;;;;;;;;;;;;;;2197503;66;1941;-19
2023/12/03 03:49:18;;;;;;;;;;;;;;;;;;2200553;59;1700;-19
2023/12/03 03:51:49;;;;;;;;;;;;;;;;;;2196312;66;1801;-19
2023/12/03 03:54:19;;;;;;;;;;;;;;;;;;2199061;67;2028;-19
2023/12/03 03:56:49;;;;;;;;;;;;;;;;;;2198666;67;2375;-19
2023/12/03 03:59:20;;;;;;;;;;;;;;;;;;2199189;59;1999;-19
2023/12/03 04:01:50;;;;;;;;;;;;;;;;;;2198001;66;1876;-19
2023/12/03 04:04:20;;;;;;;;;;;;;;;;;;2197196;59;2521;-19
2023/12/03 04:06:50;;;;;;;;;;;;;;;;;;2198739;59;2299;-19
2023/12/03 04:09:21;;;;;;;;;;;;;;;;;;2197080;66;3038;-19
2023/12/03 04:11:51;;;;;;;;;;;;;;;;;;2198848;67;2396;-19
2023/12/03 04:14:21;;;;;;;;;;;;;;;;;;2196948;66;1778;-19
2023/12/03 04:16:51;;;;;;;;;;;;;;;;;;2198067;66;1990;-19
2023/12/03 04:19:22;;;;;;;;;;;;;;;;;;2200123;67;2403;-19
2023/12/03 04:21:52;;;;;;;;;;;;;;;;;;2199805;67;1736;-19
2023/12/03 04:24:22;;;;;;;;;;;;;;;;;;2200256;67;2329;-19
2023/12/03 04:26:53;;;;;;;;;;;;;;;;;;2199741;59;2226;-19
2023/12/03 04:29:23;;;;;;;;;;;;;;;;;;2200574;59;2408;-19
2023/12/03 04:31:53;;;;;;;;;;;;;;;;;;2200178;59;1926;-19
2023/12/03 04:34:23;;;;;;;;;;;;;;;;;;2197307;60;1644;-19
2023/12/03 04:36:54;;;;;;;;;;;;;;;;;;2196203;67;2131;-19
2023/12/03 04:39:24;;;;;;;;;;;;;;;;;;2197514;66;1779;-19
2023/12/03 04:41:54;;;;;;;;;;;;;;;;;;2199784;59;2048;-19
2023/12/03 04:44:25;;;;;;;;;;;;;;;;;;2200634;59;1994;-19
2023/12/03 04:46:55;;;;;;;;;;;;;;;;;;2198994;67;2118;-19
2023/12/03 04:49:25;;;;;;;;;;;;;;;;;;2200026;67;2316;-19
2023/12/03 04:51:55;;;;;;;;;;;;;;;;;;2199309;60;1902;-19
2023/12/03 04:54:26;;;;;;;;;;;;;;;;;;2211861;66;2071;-19
2023/12/03 04:56:56;;;;;;;;;;;;;;;;;;2196785;66;2175;-19
2023/12/03 04:59:26;;;;;;;;;;;;;;;;;;2200213;66;2022;-19
2023/12/03 05:01:57;;;;;;;;;;;;;;;;;;2196610;59;2455;-19
2023/12/03 05:04:27;;;;;;;;;;;;;;;;;;2201220;67;1944;-19
2023/12/03 05:06:57;;;;;;;;;;;;;;;;;;2200567;59;1818;-19
2023/12/03 05:09:27;;;;;;;;;;;;;;;;;;2201448;59;2828;-19
2023/12/03 05:11:58;;;;;;;;;;;;;;;;;;2200886;59;1834;-19
2023/12/03 05:14:28;;;;;;;;;;;;;;;;;;2197452;59;1836;-19
2023/12/03 05:16:58;;;;;;;;;;;;;;;;;;2197399;66;1884;-18
2023/12/03 05:19:29;;;;;;;;;;;;;;;;;;2201073;59;1901;-18
2023/12/03 05:21:59;;;;;;;;;;;;;;;;;;2200228;59;1866;-18
2023/12/03 05:24:29;;;;;;;;;;;;;;;;;;2199978;66;1914;-19
2023/12/03 05:26:59;;;;;;;;;;;;;;;;;;2196458;58;2103;-18
2023/12/03 05:29:30;;;;;;;;;;;;;;;;;;2199870;59;2382;-19
2023/12/03 05:32:00;;;;;;;;;;;;;;;;;;2197155;59;1575;-19
2023/12/03 05:34:31;;;;;;;;;;;;;;;;;;2197844;59;2914;-19
2023/12/03 05:37:01;;;;;;;;;;;;;;;;;;2200849;59;1879;-19
2023/12/03 05:39:31;;;;;;;;;;;;;;;;;;2199808;59;2264;-19
2023/12/03 05:42:01;;;;;;;;;;;;;;;;;;2200771;59;1782;-18
2023/12/03 05:44:32;;;;;;;;;;;;;;;;;;2200322;59;1945;-19
2023/12/03 05:47:02;;;;;;;;;;;;;;;;;;2201121;67;1726;-19
2023/12/03 05:49:32;;;;;;;;;;;;;;;;;;2200297;58;1804;-19
2023/12/03 05:52:03;;;;;;;;;;;;;;;;;;2197288;59;2410;-19
2023/12/03 05:54:33;;;;;;;;;;;;;;;;;;2200157;67;1979;-19
2023/12/03 05:57:03;;;;;;;;;;;;;;;;;;2200071;67;2296;-19
2023/12/03 05:59:34;;;;;;;;;;;;;;;;;;2200530;59;1904;-19
2023/12/03 06:02:04;;;;;;;;;;;;;;;;;;2198255;59;2383;-18
2023/12/03 06:04:34;;;;;;;;;;;;;;;;;;2201190;66;2526;-19
2023/12/03 06:07:05;;;;;;;;;;;;;;;;;;2195484;59;1749;-18
2023/12/03 06:09:35;;;;;;;;;;;;;;;;;;2200273;59;2751;-18
2023/12/03 06:12:06;;;;;;;;;;;;;;;;;;2201252;67;1730;-18
2023/12/03 06:14:36;;;;;;;;;;;;;;;;;;2200149;59;1842;-18
2023/12/03 06:17:06;;;;;;;;;;;;;;;;;;2201007;67;1641;-18
2023/12/03 06:19:37;;;;;;;;;;;;;;;;;;2200023;60;2112;-19
2023/12/03 06:22:07;;;;;;;;;;;;;;;;;;2201505;67;2338;-18
2023/12/03 06:24:37;;;;;;;;;;;;;;;;;;2197262;66;2154;-18
2023/12/03 06:27:08;;;;;;;;;;;;;;;;;;2200593;59;1805;-18
2023/12/03 06:29:38;;;;;;;;;;;;;;;;;;2199278;59;2321;-18
2023/12/03 06:32:08;;;;;;;;;;;;;;;;;;2200993;59;1955;-16
2023/12/03 06:34:39;;;;;;;;;;;;;;;;;;2199834;67;2101;-16
2023/12/03 06:37:09;;;;;;;;;;;;;;;;;;2197699;66;2274;-17
2023/12/03 06:39:39;;;;;;;;;;;;;;;;;;2199845;66;1923;-17
2023/12/03 06:42:10;;;;;;;;;;;;;;;;;;2200589;67;2353;-17
2023/12/03 06:44:40;;;;;;;;;;;;;;;;;;2197198;59;3230;-17
2023/12/03 06:47:10;;;;;;;;;;;;;;;;;;2200401;67;1906;-16
2023/12/03 06:49:41;;;;;;;;;;;;;;;;;;2193472;60;1798;-17
2023/12/03 06:52:12;;;;;;;;;;;;;;;;;;2200141;67;2550;-16
2023/12/03 06:54:42;;;;;;;;;;;;;;;;;;2199772;67;2478;-18
2023/12/03 06:57:12;;;;;;;;;;;;;;;;;;2200257;67;2509;-17
2023/12/03 06:59:43;;;;;;;;;;;;;;;;;;2193779;59;2310;-16
2023/12/03 07:02:13;;;;;;;;;;;;;;;;;;2196078;66;2967;-17
2023/12/03 07:04:43;;;;;;;;;;;;;;;;;;2197021;59;2222;-19
2023/12/03 07:07:14;;;;;;;;;;;;;;;;;;2201258;59;2116;-18
2023/12/03 07:09:44;;;;;;;;;;;;;;;;;;2200669;59;1789;-18
2023/12/03 07:12:14;;;;;;;;;;;;;;;;;;2196636;66;1968;-17
2023/12/03 07:14:45;;;;;;;;;;;;;;;;;;2199567;59;2027;-17
2023/12/03 07:17:15;;;;;;;;;;;;;;;;;;2200032;67;2387;-18
2023/12/03 07:19:45;;;;;;;;;;;;;;;;;;2196445;59;2051;-18
2023/12/03 07:22:16;;;;;;;;;;;;;;;;;;2200997;59;1827;-16
2023/12/03 07:24:46;;;;;;;;;;;;;;;;;;2199913;66;2503;-16
2023/12/03 07:27:18;;;;;;;;;;;;;;;;;;2200630;60;1773;-18
2023/12/03 07:29:55;;;;;;;;;;;;;;;;;;2197823;59;2343;-18
2023/12/03 07:32:26;;;;;;;;;;;;;;;;;;2197034;59;1763;-16
2023/12/03 07:34:56;;;;;;;;;;;;;;;;;;2196179;66;2330;-17
2023/12/03 07:37:26;;;;;;;;;;;;;;;;;;2197257;66;1856;-16
2023/12/03 07:39:57;;;;;;;;;;;;;;;;;;2199984;58;1879;-17
2023/12/03 07:42:27;;;;;;;;;;;;;;;;;;2197690;59;2381;-17
2023/12/03 07:44:57;;;;;;;;;;;;;;;;;;2199137;67;2180;-17
2023/12/03 07:47:29;;;;;;;;;;;;;;;;;;2199743;59;2250;-17
2023/12/03 07:49:59;;;;;;;;;;;;;;;;;;2199588;59;2756;-16
2023/12/03 07:52:31;;;;;;;;;;;;;;;;;;2199340;67;2064;-17
2023/12/03 07:55:02;;;;;;;;;;;;;;;;;;2199706;66;1771;-16
2023/12/03 07:57:32;;;;;;;;;;;;;;;;;;2198848;66;2373;-17
2023/12/03 08:00:04;;;;;;;;;;;;;;;;;;2199421;59;1931;-17
2023/12/03 08:02:34;;;;;;;;;;;;;;;;;;2199753;59;2308;-17
2023/12/03 08:05:06;;;;;;;;;;;;;;;;;;2199366;67;2122;-17
2023/12/03 08:07:36;;;;;;;;;;;;;;;;;;2199780;59;1830;-17
2023/12/03 08:10:07;;;;;;;;;;;;;;;;;;2199481;66;2216;-17
2023/12/03 08:12:37;;;;;;;;;;;;;;;;;;2200326;67;1886;-17
2023/12/03 08:15:07;;;;;;;;;;;;;;;;;;2199378;66;1722;-16
2023/12/03 08:17:38;;;;;;;;;;;;;;;;;;2202768;66;2088;-17
2023/12/03 08:20:09;;;;;;;;;;;;;;;;;;2199152;67;1679;-19
2023/12/03 08:22:39;;;;;;;;;;;;;;;;;;2193865;67;2444;-17
2023/12/03 08:25:10;;;;;;;;;;;;;;;;;;2198084;66;2319;-16
2023/12/03 08:27:40;;;;;;;;;;;;;;;;;;2197605;59;3369;-16
2023/12/03 08:30:11;;;;;;;;;;;;;;;;;;2200145;59;2217;-17
2023/12/03 08:32:41;;;;;;;;;;;;;;;;;;2196457;59;2154;-21
2023/12/03 08:35:11;;;;;;;;;;;;;;;;;;2198043;66;1841;-17
2023/12/03 08:37:41;;;;;;;;;;;;;;;;;;2199520;67;1492;-17
2023/12/03 08:40:13;;;;;;;;;;;;;;;;;;2200792;59;1319;-17
2023/12/03 08:42:44;;;;;;;;;;;;;;;;;;2198383;59;1467;-16
2023/12/03 08:45:14;;;;;;;;;;;;;;;;;;2199638;67;1940;-17
2023/12/03 08:47:44;;;;;;;;;;;;;;;;;;2199071;66;1237;-17
2023/12/03 08:50:15;;;;;;;;;;;;;;;;;;2199362;67;1201;-17
2023/12/03 08:52:45;;;;;;;;;;;;;;;;;;2198564;66;1320;-17
2023/12/03 08:55:15;;;;;;;;;;;;;;;;;;2195243;67;1504;-17
2023/12/03 08:57:45;;;;;;;;;;;;;;;;;;2199135;67;1427;-17
2023/12/03 09:00:16;;;;;;;;;;;;;;;;;;2200153;66;1251;-17
2023/12/03 09:02:46;;;;;;;;;;;;;;;;;;2199563;67;2333;-16
2023/12/03 09:05:17;;;;;;;;;;;;;;;;;;2197627;66;1923;-17
2023/12/03 09:07:47;;;;;;;;;;;;;;;;;;2198962;59;1666;-17
2023/12/03 09:10:17;;;;;;;;;;;;;;;;;;2200230;67;1237;-17
2023/12/03 09:12:48;;;;;;;;;;;;;;;;;;2199328;66;1174;-17
2023/12/03 09:15:18;;;;;;;;;;;;;;;;;;2197728;59;1580;-17
2023/12/03 09:17:48;;;;;;;;;;;;;;;;;;2196153;66;1278;-17
2023/12/03 09:20:19;;;;;;;;;;;;;;;;;;2200034;66;1815;-17
2023/12/03 09:22:49;;;;;;;;;;;;;;;;;;2199620;67;1618;-17
2023/12/03 09:25:19;;;;;;;;;;;;;;;;;;2200100;66;1945;-17
2023/12/03 09:27:49;;;;;;;;;;;;;;;;;;2192704;59;1872;-17
2023/12/03 09:30:20;;;;;;;;;;;;;;;;;;2199881;59;2383;-17
2023/12/03 09:32:50;;;;;;;;;;;;;;;;;;2195591;59;1419;-17
2023/12/03 09:35:21;;;;;;;;;;;;;;;;;;2200272;66;1161;-17
2023/12/03 09:37:51;;;;;;;;;;;;;;;;;;2197478;66;1616;-17
2023/12/03 09:40:22;;;;;;;;;;;;;;;;;;2199663;59;1178;-17
2023/12/03 09:42:52;;;;;;;;;;;;;;;;;;2200338;67;2000;-17
2023/12/03 09:45:26;;;;;;;;;;;;;;;;;;2199880;67;1517;-17
2023/12/03 09:47:59;;;;;;;;;;;;;;;;;;2199489;67;1169;-17
2023/12/03 09:50:31;;;;;;;;;;;;;;;;;;2200233;66;1156;-17
2023/12/03 09:53:02;;;;;;;;;;;;;;;;;;2200165;59;2312;-17
2023/12/03 09:55:33;;;;;;;;;;;;;;;;;;2201136;59;1364;-17
2023/12/03 09:58:04;;;;;;;;;;;;;;;;;;2197874;59;2316;-17
2023/12/03 10:00:37;;;;;;;;;;;;;;;;;;2200528;59;1337;-17
2023/12/03 10:03:08;;;;;;;;;;;;;;;;;;2200016;59;2425;-17
2023/12/03 10:05:38;;;;;;;;;;;;;;;;;;2199613;59;1421;-17
2023/12/03 10:08:09;;;;;;;;;;;;;;;;;;2198537;59;1239;-17
2023/12/03 10:10:43;;;;;;;;;;;;;;;;;;2200190;66;1421;-17
2023/12/03 10:13:13;;;;;;;;;;;;;;;;;;2198544;66;1229;-17
2023/12/03 10:15:44;;;;;;;;;;;;;;;;;;2196670;59;1378;-17
2023/12/03 10:18:15;;;;;;;;;;;;;;;;;;2200224;67;1258;-17
2023/12/03 10:20:45;;;;;;;;;;;;;;;;;;2199770;66;1525;-17
2023/12/03 10:23:16;;;;;;;;;;;;;;;;;;2200176;67;1947;-17
2023/12/03 10:25:46;;;;;;;;;;;;;;;;;;2200131;66;2120;-17
2023/12/03 10:28:17;;;;;;;;;;;;;;;;;;2195040;59;2041;-17
2023/12/03 10:30:50;;;;;;;;;;;;;;;;;;2197046;59;2303;-17
2023/12/03 10:33:20;;;;;;;;;;;;;;;;;;2200355;59;1313;-18
2023/12/03 10:35:51;;;;;;;;;;;;;;;;;;2200388;66;1749;-17
2023/12/03 10:38:21;;;;;;;;;;;;;;;;;;2200528;66;1283;-17
2023/12/03 10:40:52;;;;;;;;;;;;;;;;;;2196565;59;1346;-17
2023/12/03 10:43:22;;;;;;;;;;;;;;;;;;2196477;66;1941;-17
2023/12/03 10:45:53;;;;;;;;;;;;;;;;;;2199667;66;1613;-18
2023/12/03 10:48:24;;;;;;;;;;;;;;;;;;2200071;66;1229;-18
2023/12/03 10:51:00;;;;;;;;;;;;;;;;;;2196247;66;1705;-18
2023/12/03 10:53:33;;;;;;;;;;;;;;;;;;2200112;67;1105;-18
2023/12/03 10:56:05;;;;;;;;;;;;;;;;;;2196355;66;1489;-18
2023/12/03 10:58:37;;;;;;;;;;;;;;;;;;2195384;67;1364;-18
2023/12/03 11:01:19;;;;;;;;;;;;;;;;;;2199086;66;1121;-18
2023/12/03 11:03:52;;;;;;;;;;;;;;;;;;2193832;59;2345;-18
2023/12/03 11:06:23;;;;;;;;;;;;;;;;;;2200635;59;1570;-18
2023/12/03 11:08:55;;;;;;;;;;;;;;;;;;2206618;53;1788;-26
2023/12/03 11:11:25;;;;;;;;;;;;;;;;;;2204480;67;1854;-26
2023/12/03 11:13:56;;;;;;;;;;;;;;;;;;2205495;67;2020;-25
2023/12/03 11:16:31;;;;;;;;;;;;;;;;;;2205544;67;1759;-26
2023/12/03 11:19:05;;;;;;;;;;;;;;;;;;2205034;59;2143;-26
2023/12/03 11:21:54;;;;;;;;;;;;;;;;;;2205712;67;2382;-26
2023/12/03 11:24:42;;;;;;;;;;;;;;;;;;2206235;59;1946;-26
2023/12/03 11:27:12;;;;;;;;;;;;;;;;;;2205743;67;1933;-24
2023/12/03 11:29:49;;;;;;;;;;;;;;;;;;2205479;59;2228;-24
2023/12/03 11:32:20;;;;;;;;;;;;;;;;;;2205874;59;2385;-24
2023/12/03 11:35:01;;;;;;;;;;;;;;;;;;2204765;59;1911;-24
2023/12/03 11:37:31;;;;;;;;;;;;;;;;;;2205211;59;1825;-26
2023/12/03 11:40:07;;;;;;;;;;;;;;;;;;2205011;59;1772;-26
2023/12/03 11:42:47;;;;;;;;;;;;;;;;;;2208313;66;1691;-26
2023/12/03 11:45:25;;;;;;;;;;;;;;;;;;2204668;67;2197;-38
2023/12/03 11:48:01;;;;;;;;;;;;;;;;;;2204778;67;2565;-27
2023/12/03 11:50:33;;;;;;;;;;;;;;;;;;2205801;59;2540;-27
2023/12/03 11:53:04;;;;;;;;;;;;;;;;;;2205191;67;1949;-27
2023/12/03 11:55:36;;;;;;;;;;;;;;;;;;2205590;67;1943;-27
2023/12/03 11:58:06;;;;;;;;;;;;;;;;;;2204442;67;2338;-26
2023/12/03 12:00:38;;;;;;;;;;;;;;;;;;2205829;67;1818;-26
2023/12/03 12:03:08;;;;;;;;;;;;;;;;;;2204903;59;2351;-26
2023/12/03 12:05:42;;;;;;;;;;;;;;;;;;2205790;59;2320;-26
2023/12/03 12:08:22;;;;;;;;;;;;;;;;;;2205066;59;1765;-27
2023/12/03 12:10:53;;;;;;;;;;;;;;;;;;2204964;59;2945;-27
2023/12/03 12:13:23;;;;;;;;;;;;;;;;;;2205097;59;1793;-27
2023/12/03 12:15:54;;;;;;;;;;;;;;;;;;2204864;59;1666;-27
2023/12/03 12:18:24;;;;;;;;;;;;;;;;;;2205895;67;1891;-27
2023/12/03 12:21:05;;;;;;;;;;;;;;;;;;2204866;59;2022;-27
2023/12/03 12:23:35;;;;;;;;;;;;;;;;;;2205569;59;1937;-26
2023/12/03 12:26:06;;;;;;;;;;;;;;;;;;2205167;67;1829;-26
2023/12/03 12:28:36;;;;;;;;;;;;;;;;;;2205352;59;1984;-26
2023/12/03 12:31:06;;;;;;;;;;;;;;;;;;2205192;59;2706;-26
2023/12/03 12:33:37;;;;;;;;;;;;;;;;;;2206337;59;1697;-26
2023/12/03 12:36:08;;;;;;;;;;;;;;;;;;2203771;67;2253;-26
2023/12/03 12:38:42;;;;;;;;;;;;;;;;;;2206559;67;3225;-26
2023/12/03 12:41:13;;;;;;;;;;;;;;;;;;2205886;59;1790;-26
2023/12/03 12:43:57;;;;;;;;;;;;;;;;;;2205723;59;2247;-26
2023/12/03 12:46:29;;;;;;;;;;;;;;;;;;2205657;59;1749;-26
2023/12/03 12:49:11;;;;;;;;;;;;;;;;;;2204586;67;1898;-26
2023/12/03 12:51:42;;;;;;;;;;;;;;;;;;2206066;59;1623;-26
2023/12/03 12:54:14;;;;;;;;;;;;;;;;;;2202655;59;2090;-26
2023/12/03 12:56:46;;;;;;;;;;;;;;;;;;2206191;67;1947;-25
2023/12/03 12:59:16;;;;;;;;;;;;;;;;;;2205058;67;2244;-26
2023/12/03 13:01:47;;;;;;;;;;;;;;;;;;2205230;67;2269;-26
2023/12/03 13:04:17;;;;;;;;;;;;;;;;;;2204950;59;2545;-26
2023/12/03 13:06:47;;;;;;;;;;;;;;;;;;2205253;59;2061;-25
2023/12/03 13:09:18;;;;;;;;;;;;;;;;;;2205074;59;2189;-26
2023/12/03 13:11:48;;;;;;;;;;;;;;;;;;2206363;67;2036;-26
2023/12/03 13:14:18;;;;;;;;;;;;;;;;;;2206116;59;1834;-26
2023/12/03 13:16:48;;;;;;;;;;;;;;;;;;2205424;59;2819;-25
2023/12/03 13:19:20;;;;;;;;;;;;;;;;;;2205440;59;1733;-25
2023/12/03 13:21:51;;;;;;;;;;;;;;;;;;2206462;67;1879;-26
2023/12/03 13:24:21;;;;;;;;;;;;;;;;;;2205480;59;3021;-25
2023/12/03 13:26:51;;;;;;;;;;;;;;;;;;2206323;67;1796;-25
2023/12/03 13:29:22;;;;;;;;;;;;;;;;;;2206100;59;2209;-26
2023/12/03 13:31:54;;;;;;;;;;;;;;;;;;2205476;59;1785;-26
2023/12/03 13:34:24;;;;;;;;;;;;;;;;;;2205706;67;2042;-26
2023/12/03 13:36:54;;;;;;;;;;;;;;;;;;2205884;67;2015;-26
2023/12/03 13:39:24;;;;;;;;;;;;;;;;;;2205733;59;1609;-26
2023/12/03 13:41:54;;;;;;;;;;;;;;;;;;2206098;59;1843;-26
2023/12/03 13:44:25;;;;;;;;;;;;;;;;;;2206441;67;2429;-26
2023/12/03 13:46:57;;;;;;;;;;;;;;;;;;2205909;59;1800;-26
2023/12/03 13:49:27;;;;;;;;;;;;;;;;;;2206246;59;1729;-26
2023/12/03 13:51:58;;;;;;;;;;;;;;;;;;2205539;67;2146;-26
2023/12/03 13:54:28;;;;;;;;;;;;;;;;;;2205962;59;1670;-26
2023/12/03 13:56:58;;;;;;;;;;;;;;;;;;2205493;59;1847;-26
2023/12/03 13:59:29;;;;;;;;;;;;;;;;;;2206710;67;1825;-26
2023/12/03 14:01:59;;;;;;;;;;;;;;;;;;2205451;59;2156;-26
2023/12/03 14:04:30;;;;;;;;;;;;;;;;;;2206122;59;2138;-27
2023/12/03 14:07:00;;;;;;;;;;;;;;;;;;2201570;59;2235;-27
2023/12/03 14:09:30;;;;;;;;;;;;;;;;;;2204652;67;1888;-27
2023/12/03 14:12:04;;;;;;;;;;;;;;;;;;2203889;59;1934;-27
2023/12/03 14:14:34;;;;;;;;;;;;;;;;;;2207428;59;1813;-27
2023/12/03 14:17:06;;;;;;;;;;;;;;;;;;2206371;67;1870;-27
2023/12/03 14:19:37;;;;;;;;;;;;;;;;;;2206424;67;2138;-27
2023/12/03 14:22:07;;;;;;;;;;;;;;;;;;2205210;59;2563;-27
2023/12/03 14:24:37;;;;;;;;;;;;;;;;;;2205585;59;2072;-26
2023/12/03 14:27:07;;;;;;;;;;;;;;;;;;2205504;59;2172;-27
2023/12/03 14:29:38;;;;;;;;;;;;;;;;;;2206279;59;2295;-27
2023/12/03 14:32:08;;;;;;;;;;;;;;;;;;2205641;59;1905;-27
2023/12/03 14:34:38;;;;;;;;;;;;;;;;;;2205545;67;1894;-27
2023/12/03 14:37:08;;;;;;;;;;;;;;;;;;2204971;59;2326;-27
2023/12/03 14:39:40;;;;;;;;;;;;;;;;;;2205536;67;1644;-27
2023/12/03 14:42:10;;;;;;;;;;;;;;;;;;2204993;59;2311;-27
2023/12/03 14:44:41;;;;;;;;;;;;;;;;;;2205476;67;2038;-27
2023/12/03 14:47:11;;;;;;;;;;;;;;;;;;2203666;67;2015;-27
2023/12/03 14:49:41;;;;;;;;;;;;;;;;;;2205988;67;2163;-26
2023/12/03 14:52:11;;;;;;;;;;;;;;;;;;2205085;59;2394;-27
2023/12/03 14:54:43;;;;;;;;;;;;;;;;;;2206102;67;1783;-27
2023/12/03 14:57:13;;;;;;;;;;;;;;;;;;2204223;67;2032;-27
2023/12/03 14:59:44;;;;;;;;;;;;;;;;;;2206119;67;1715;-26
2023/12/03 15:02:14;;;;;;;;;;;;;;;;;;2207505;59;2400;-27
2023/12/03 15:04:44;;;;;;;;;;;;;;;;;;2203239;59;2000;-27
2023/12/03 15:07:15;;;;;;;;;;;;;;;;;;2205532;59;2000;-27
2023/12/03 15:09:45;;;;;;;;;;;;;;;;;;2206133;67;2209;-27
2023/12/03 15:12:15;;;;;;;;;;;;;;;;;;2205948;67;2721;-27
2023/12/03 15:14:45;;;;;;;;;;;;;;;;;;2206584;59;2547;-26
2023/12/03 15:17:17;;;;;;;;;;;;;;;;;;2206037;59;2146;-26
2023/12/03 15:19:47;;;;;;;;;;;;;;;;;;2205967;59;1807;-26
2023/12/03 15:22:17;;;;;;;;;;;;;;;;;;2205230;59;1646;-26
2023/12/03 15:24:47;;;;;;;;;;;;;;;;;;2204851;67;2452;-26
2023/12/03 15:27:18;;;;;;;;;;;;;;;;;;2204820;59;1753;-26
2023/12/03 15:29:48;;;;;;;;;;;;;;;;;;2205554;59;2413;-26
2023/12/03 15:32:18;;;;;;;;;;;;;;;;;;2204960;59;1772;-26
2023/12/03 15:34:48;;;;;;;;;;;;;;;;;;2206299;67;2041;-26
2023/12/03 15:37:18;;;;;;;;;;;;;;;;;;2205373;67;2435;-26
2023/12/03 15:39:49;;;;;;;;;;;;;;;;;;2205934;59;2937;-26
2023/12/03 15:42:19;;;;;;;;;;;;;;;;;;2204906;59;1887;-26
2023/12/03 15:44:49;;;;;;;;;;;;;;;;;;2206457;59;1927;-26
2023/12/03 15:47:19;;;;;;;;;;;;;;;;;;2206951;59;1982;-26
2023/12/03 15:49:50;;;;;;;;;;;;;;;;;;2205997;66;1823;-26
2023/12/03 15:52:20;;;;;;;;;;;;;;;;;;2205041;67;1695;-26
2023/12/03 15:54:50;;;;;;;;;;;;;;;;;;2206050;59;1866;-26
2023/12/03 15:57:20;;;;;;;;;;;;;;;;;;2204957;67;2298;-27
2023/12/03 15:59:50;;;;;;;;;;;;;;;;;;2205315;67;2429;-27
2023/12/03 16:02:21;;;;;;;;;;;;;;;;;;2205523;59;2379;-27
2023/12/03 16:04:51;;;;;;;;;;;;;;;;;;2206137;59;1987;-27
2023/12/03 16:07:22;;;;;;;;;;;;;;;;;;2205380;59;2028;-26
2023/12/03 16:09:53;;;;;;;;;;;;;;;;;;2206362;59;1899;-25
2023/12/03 16:12:23;;;;;;;;;;;;;;;;;;2204864;67;2061;-25
2023/12/03 16:14:54;;;;;;;;;;;;;;;;;;2206261;59;1853;-25
2023/12/03 16:17:24;;;;;;;;;;;;;;;;;;2205271;67;1894;-26
2023/12/03 16:19:54;;;;;;;;;;;;;;;;;;2206044;67;2158;-25
2023/12/03 16:22:27;;;;;;;;;;;;;;;;;;2201753;67;1970;-26
2023/12/03 16:24:57;;;;;;;;;;;;;;;;;;2205846;67;1993;-25
2023/12/03 16:27:27;;;;;;;;;;;;;;;;;;2207614;66;2537;-25
2023/12/03 16:29:57;;;;;;;;;;;;;;;;;;2205631;59;2414;-25
2023/12/03 16:32:28;;;;;;;;;;;;;;;;;;2205239;59;1922;-25
2023/12/03 16:34:58;;;;;;;;;;;;;;;;;;2205983;67;1811;-25
2023/12/03 16:37:28;;;;;;;;;;;;;;;;;;2204942;67;2508;-25
2023/12/03 16:39:58;;;;;;;;;;;;;;;;;;2205816;67;1970;-25
2023/12/03 16:42:29;;;;;;;;;;;;;;;;;;2204927;59;2055;-25
2023/12/03 16:44:59;;;;;;;;;;;;;;;;;;2205718;59;1935;-25
2023/12/03 16:47:29;;;;;;;;;;;;;;;;;;2205525;59;1769;-25
2023/12/03 16:50:00;;;;;;;;;;;;;;;;;;2205594;67;2317;-25
2023/12/03 16:52:30;;;;;;;;;;;;;;;;;;2206015;67;1956;-25
2023/12/03 16:55:01;;;;;;;;;;;;;;;;;;2206794;59;1781;-25
2023/12/03 16:57:31;;;;;;;;;;;;;;;;;;2206156;59;1886;-25
2023/12/03 17:00:03;;;;;;;;;;;;;;;;;;2206512;67;1633;-25
2023/12/03 17:02:33;;;;;;;;;;;;;;;;;;2205083;59;2889;-25
2023/12/03 17:05:04;;;;;;;;;;;;;;;;;;2206700;67;2690;-25
2023/12/03 17:10:07;;;;;;;;;;;;;;;;;;2193727;59;2393;-20
2023/12/03 17:12:37;;;;;;;;;;;;;;;;;;2197187;66;2341;-20
2023/12/03 17:15:09;;;;;;;;;;;;;;;;;;2197116;66;1709;-20
2023/12/03 17:17:40;;;;;;;;;;;;;;;;;;2196415;66;2105;-20
2023/12/03 17:20:10;;;;;;;;;;;;;;;;;;2196025;59;1826;-20
2023/12/03 17:22:40;;;;;;;;;;;;;;;;;;2196739;66;1927;-20
2023/12/03 17:25:11;;;;;;;;;;;;;;;;;;2195735;66;1991;-20
2023/12/03 17:27:41;;;;;;;;;;;;;;;;;;2196685;59;2200;-20
2023/12/03 17:30:11;;;;;;;;;;;;;;;;;;2199049;59;2455;-20